sensor_id;sensor_type;location;lat;lon;timestamp;pressure;altitude;pressure_sealevel;temperature;humidity
3444;BME280;1736;52.068;6.968;2023-03-03T00:01:06;101945.50;;;0.65;100.00
3444;BME280;1736;52.068;6.968;2023-03-03T00:03:33;101941.34;;;0.58;100.00
3444;BME280;1736;52.068;6.968;2023-03-03T00:06:01;101947.38;;;0.60;100.00
3444;BME280;1736;52.068;6.968;2023-03-03T00:08:28;101946.38;;;0.66;100.00
3444;BME280;1736;52.068;6.968;2023-03-03T00:10:57;101946.44;;;0.63;100.00
3444;BME280;1736;52.068;6.968;2023-03-03T00:13:26;101945.47;;;0.67;100.00
3444;BME280;1736;52.068;6.968;2023-03-03T00:15:53;101939.22;;;0.74;100.00
3444;BME280;1736;52.068;6.968;2023-03-03T00:18:27;101943.56;;;0.73;100.00
3444;BME280;1736;52.068;6.968;2023-03-03T00:20:56;101945.41;;;0.70;100.00
3444;BME280;1736;52.068;6.968;2023-03-03T00:23:29;101938.44;;;0.70;100.00
3444;BME280;1736;52.068;6.968;2023-03-03T00:25:58;101941.78;;;0.77;100.00
3444;BME280;1736;52.068;6.968;2023-03-03T00:28:27;101943.53;;;0.75;100.00
3444;BME280;1736;52.068;6.968;2023-03-03T00:30:55;101942.53;;;0.80;100.00
3444;BME280;1736;52.068;6.968;2023-03-03T00:33:29;101946.03;;;0.81;100.00
3444;BME280;1736;52.068;6.968;2023-03-03T00:36:05;101951.97;;;0.87;100.00
3444;BME280;1736;52.068;6.968;2023-03-03T00:38:35;101955.66;;;0.77;100.00
3444;BME280;1736;52.068;6.968;2023-03-03T00:41:05;101944.38;;;0.77;100.00
3444;BME280;1736;52.068;6.968;2023-03-03T00:43:36;101945.16;;;0.80;100.00
3444;BME280;1736;52.068;6.968;2023-03-03T00:46:03;101946.88;;;0.81;100.00
3444;BME280;1736;52.068;6.968;2023-03-03T00:48:40;101958.06;;;0.88;100.00
3444;BME280;1736;52.068;6.968;2023-03-03T00:51:18;101953.69;;;0.87;100.00
3444;BME280;1736;52.068;6.968;2023-03-03T00:53:46;101949.38;;;0.86;100.00
3444;BME280;1736;52.068;6.968;2023-03-03T00:56:14;101946.88;;;0.81;100.00
3444;BME280;1736;52.068;6.968;2023-03-03T00:58:41;101950.25;;;0.86;100.00
3444;BME280;1736;52.068;6.968;2023-03-03T01:01:08;101957.91;;;0.94;100.00
3444;BME280;1736;52.068;6.968;2023-03-03T01:03:35;101942.38;;;0.88;100.00
3444;BME280;1736;52.068;6.968;2023-03-03T01:06:02;101949.44;;;0.83;100.00
3444;BME280;1736;52.068;6.968;2023-03-03T01:08:29;101949.44;;;0.83;100.00
3444;BME280;1736;52.068;6.968;2023-03-03T01:10:57;101948.69;;;0.78;100.00
3444;BME280;1736;52.068;6.968;2023-03-03T01:13:29;101956.53;;;0.78;100.00
3444;BME280;1736;52.068;6.968;2023-03-03T01:15:57;101949.44;;;0.83;100.00
3444;BME280;1736;52.068;6.968;2023-03-03T01:18:24;101950.28;;;0.85;100.00
3444;BME280;1736;52.068;6.968;2023-03-03T01:20:50;101955.44;;;0.88;100.00
3444;BME280;1736;52.068;6.968;2023-03-03T01:23:17;101944.78;;;0.95;100.00
3444;BME280;1736;52.068;6.968;2023-03-03T01:25:44;101946.50;;;0.96;100.00
3444;BME280;1736;52.068;6.968;2023-03-03T01:28:10;101940.44;;;0.96;100.00
3444;BME280;1736;52.068;6.968;2023-03-03T01:30:38;101932.91;;;0.84;100.00
3444;BME280;1736;52.068;6.968;2023-03-03T01:33:05;101944.16;;;0.86;100.00
3444;BME280;1736;52.068;6.968;2023-03-03T01:35:32;101933.75;;;0.83;100.00
3444;BME280;1736;52.068;6.968;2023-03-03T01:38:00;101941.56;;;0.84;100.00
3444;BME280;1736;52.068;6.968;2023-03-03T01:40:29;101936.13;;;0.93;100.00
3444;BME280;1736;52.068;6.968;2023-03-03T01:42:58;101947.22;;;1.03;100.00
3444;BME280;1736;52.068;6.968;2023-03-03T01:45:26;101934.38;;;0.94;100.00
3444;BME280;1736;52.068;6.968;2023-03-03T01:48:00;101935.59;;;1.14;100.00
3444;BME280;1736;52.068;6.968;2023-03-03T01:50:37;101942.03;;;1.00;100.00
3444;BME280;1736;52.068;6.968;2023-03-03T01:53:11;101937.06;;;0.91;100.00
3444;BME280;1736;52.068;6.968;2023-03-03T01:55:40;101942.28;;;0.91;100.00
3444;BME280;1736;52.068;6.968;2023-03-03T01:58:10;101944.03;;;0.92;100.00
3444;BME280;1736;52.068;6.968;2023-03-03T02:00:41;101954.38;;;0.95;100.00
3444;BME280;1736;52.068;6.968;2023-03-03T02:03:11;101943.75;;;1.02;100.00
3444;BME280;1736;52.068;6.968;2023-03-03T02:05:38;101945.25;;;1.11;100.00
3444;BME280;1736;52.068;6.968;2023-03-03T02:08:08;101939.41;;;1.01;100.00
3444;BME280;1736;52.068;6.968;2023-03-03T02:10:37;101938.41;;;1.07;100.00
3444;BME280;1736;52.068;6.968;2023-03-03T02:13:04;101934.78;;;1.12;100.00
3444;BME280;1736;52.068;6.968;2023-03-03T02:15:32;101946.25;;;1.07;100.00
3444;BME280;1736;52.068;6.968;2023-03-03T02:18:03;101942.84;;;1.03;100.00
3444;BME280;1736;52.068;6.968;2023-03-03T02:20:41;101948.31;;;0.94;100.00
3444;BME280;1736;52.068;6.968;2023-03-03T02:23:14;101953.38;;;1.00;100.00
3444;BME280;1736;52.068;6.968;2023-03-03T02:25:48;101945.69;;;0.94;100.00
3444;BME280;1736;52.068;6.968;2023-03-03T02:28:18;101947.47;;;0.92;100.00
3444;BME280;1736;52.068;6.968;2023-03-03T02:30:45;101944.66;;;1.00;100.00
3444;BME280;1736;52.068;6.968;2023-03-03T02:33:12;101937.81;;;0.96;100.00
3444;BME280;1736;52.068;6.968;2023-03-03T02:35:39;101937.72;;;0.99;100.00
3444;BME280;1736;52.068;6.968;2023-03-03T02:38:16;101955.97;;;1.02;100.00
3444;BME280;1736;52.068;6.968;2023-03-03T02:40:51;101942.81;;;1.05;100.00
3444;BME280;1736;52.068;6.968;2023-03-03T02:43:21;101941.19;;;1.01;100.00
3444;BME280;1736;52.068;6.968;2023-03-03T02:45:48;101938.47;;;1.04;100.00
3444;BME280;1736;52.068;6.968;2023-03-03T02:48:15;101945.34;;;1.08;100.00
3444;BME280;1736;52.068;6.968;2023-03-03T02:50:42;101943.69;;;1.04;100.00
3444;BME280;1736;52.068;6.968;2023-03-03T02:53:08;101947.06;;;1.09;100.00
3444;BME280;1736;52.068;6.968;2023-03-03T02:55:35;101945.44;;;1.05;100.00
3444;BME280;1736;52.068;6.968;2023-03-03T02:58:01;101953.38;;;1.00;100.00
3444;BME280;1736;52.068;6.968;2023-03-03T03:00:29;101950.44;;;1.14;100.00
3444;BME280;1736;52.068;6.968;2023-03-03T03:02:56;101958.47;;;1.06;100.00
3444;BME280;1736;52.068;6.968;2023-03-03T03:05:23;101948.88;;;1.05;100.00
3444;BME280;1736;52.068;6.968;2023-03-03T03:07:50;101952.31;;;1.09;100.00
3444;BME280;1736;52.068;6.968;2023-03-03T03:10:16;101943.78;;;1.01;100.00
3444;BME280;1736;52.068;6.968;2023-03-03T03:12:43;101950.78;;;0.99;100.00
3444;BME280;1736;52.068;6.968;2023-03-03T03:15:10;101947.38;;;0.97;100.00
3444;BME280;1736;52.068;6.968;2023-03-03T03:17:38;101947.16;;;1.06;100.00
3444;BME280;1736;52.068;6.968;2023-03-03T03:20:05;101962.91;;;1.03;100.00
3444;BME280;1736;52.068;6.968;2023-03-03T03:22:32;101951.66;;;0.99;100.00
3444;BME280;1736;52.068;6.968;2023-03-03T03:24:58;101945.19;;;1.14;100.00
3444;BME280;1736;52.068;6.968;2023-03-03T03:27:25;101948.06;;;1.03;100.00
3444;BME280;1736;52.068;6.968;2023-03-03T03:29:52;101957.66;;;1.03;100.00
3444;BME280;1736;52.068;6.968;2023-03-03T03:32:18;101948.84;;;1.07;100.00
3444;BME280;1736;52.068;6.968;2023-03-03T03:34:46;101949.69;;;1.09;100.00
3444;BME280;1736;52.068;6.968;2023-03-03T03:37:13;101952.19;;;1.12;100.00
3444;BME280;1736;52.068;6.968;2023-03-03T03:39:40;101950.44;;;1.14;100.00
3444;BME280;1736;52.068;6.968;2023-03-03T03:42:07;101948.63;;;1.16;100.00
3444;BME280;1736;52.068;6.968;2023-03-03T03:44:33;101958.41;;;1.08;100.00
3444;BME280;1736;52.068;6.968;2023-03-03T03:47:00;101949.53;;;1.15;100.00
3444;BME280;1736;52.068;6.968;2023-03-03T03:49:26;101958.22;;;1.15;100.00
3444;BME280;1736;52.068;6.968;2023-03-03T03:51:54;101954.78;;;1.13;100.00
3444;BME280;1736;52.068;6.968;2023-03-03T03:54:21;101948.63;;;1.16;100.00
3444;BME280;1736;52.068;6.968;2023-03-03T03:56:47;101946.84;;;1.18;100.00
3444;BME280;1736;52.068;6.968;2023-03-03T03:59:14;101944.19;;;1.19;100.00
3444;BME280;1736;52.068;6.968;2023-03-03T04:01:40;101939.88;;;1.18;100.00
3444;BME280;1736;52.068;6.968;2023-03-03T04:04:07;101937.94;;;1.25;100.00
3444;BME280;1736;52.068;6.968;2023-03-03T04:06:34;101949.53;;;1.15;100.00
3444;BME280;1736;52.068;6.968;2023-03-03T04:09:02;101940.59;;;1.23;100.00
3444;BME280;1736;52.068;6.968;2023-03-03T04:11:29;101955.41;;;1.23;100.00
3444;BME280;1736;52.068;6.968;2023-03-03T04:13:55;101942.13;;;1.30;100.00
3444;BME280;1736;52.068;6.968;2023-03-03T04:16:22;101946.59;;;1.27;100.00
3444;BME280;1736;52.068;6.968;2023-03-03T04:18:49;101944.72;;;1.32;100.00
3444;BME280;1736;52.068;6.968;2023-03-03T04:21:15;101951.09;;;1.22;100.00
3444;BME280;1736;52.068;6.968;2023-03-03T04:23:42;101949.28;;;1.24;100.00
3444;BME280;1736;52.068;6.968;2023-03-03T04:26:10;101946.28;;;1.39;100.00
3444;BME280;1736;52.068;6.968;2023-03-03T04:28:36;101957.06;;;1.27;100.00
3444;BME280;1736;52.068;6.968;2023-03-03T04:31:03;101960.56;;;1.26;100.00
3444;BME280;1736;52.068;6.968;2023-03-03T04:33:30;101954.22;;;1.34;100.00
3444;BME280;1736;52.068;6.968;2023-03-03T04:35:57;101964.00;;;1.28;100.00
3444;BME280;1736;52.068;6.968;2023-03-03T04:38:23;101946.72;;;1.22;100.00
3444;BME280;1736;52.068;6.968;2023-03-03T04:40:50;101944.13;;;1.22;100.00
3444;BME280;1736;52.068;6.968;2023-03-03T04:43:18;101946.50;;;1.31;100.00
3444;BME280;1736;52.068;6.968;2023-03-03T04:45:45;101958.44;;;1.40;100.00
3444;BME280;1736;52.068;6.968;2023-03-03T04:48:12;101953.16;;;1.43;100.00
3444;BME280;1736;52.068;6.968;2023-03-03T04:50:38;101954.97;;;1.41;100.00
3444;BME280;1736;52.068;6.968;2023-03-03T04:53:06;101956.59;;;1.45;100.00
3444;BME280;1736;52.068;6.968;2023-03-03T04:55:35;101948.09;;;1.37;100.00
3444;BME280;1736;52.068;6.968;2023-03-03T04:58:01;101952.53;;;1.33;100.00
3444;BME280;1736;52.068;6.968;2023-03-03T05:00:30;101948.16;;;1.34;100.00
3444;BME280;1736;52.068;6.968;2023-03-03T05:02:56;101950.50;;;1.44;100.00
3444;BME280;1736;52.068;6.968;2023-03-03T05:05:23;101945.38;;;1.40;100.00
3444;BME280;1736;52.068;6.968;2023-03-03T05:07:50;101953.31;;;1.37;100.00
3444;BME280;1736;52.068;6.968;2023-03-03T05:10:16;101967.19;;;1.39;100.00
3444;BME280;1736;52.068;6.968;2023-03-03T05:12:43;101952.44;;;1.36;100.00
3444;BME280;1736;52.068;6.968;2023-03-03T05:15:10;101958.94;;;1.22;100.00
3444;BME280;1736;52.068;6.968;2023-03-03T05:17:38;101969.09;;;1.34;100.00
3444;BME280;1736;52.068;6.968;2023-03-03T05:20:06;101956.94;;;1.31;100.00
3444;BME280;1736;52.068;6.968;2023-03-03T05:22:34;101960.25;;;1.38;100.00
3444;BME280;1736;52.068;6.968;2023-03-03T05:25:01;101967.50;;;1.27;100.00
3444;BME280;1736;52.068;6.968;2023-03-03T05:27:27;101963.78;;;1.37;100.00
3444;BME280;1736;52.068;6.968;2023-03-03T05:29:54;101966.91;;;1.16;100.00
3444;BME280;1736;52.068;6.968;2023-03-03T05:32:21;101966.41;;;1.02;100.00
3444;BME280;1736;52.068;6.968;2023-03-03T05:34:48;101970.72;;;1.03;100.00
3444;BME280;1736;52.068;6.968;2023-03-03T05:37:16;101965.44;;;1.06;100.00
3444;BME280;1736;52.068;6.968;2023-03-03T05:39:43;101970.81;;;1.00;100.00
3444;BME280;1736;52.068;6.968;2023-03-03T05:42:11;101978.59;;;1.01;100.00
3444;BME280;1736;52.068;6.968;2023-03-03T05:44:37;101963.09;;;0.95;100.00
3444;BME280;1736;52.068;6.968;2023-03-03T05:47:04;101968.34;;;0.94;100.00
3444;BME280;1736;52.068;6.968;2023-03-03T05:49:31;101971.88;;;0.93;100.00
3444;BME280;1736;52.068;6.968;2023-03-03T05:51:59;101972.81;;;0.90;100.00
3444;BME280;1736;52.068;6.968;2023-03-03T05:54:26;101976.34;;;0.88;100.00
3444;BME280;1736;52.068;6.968;2023-03-03T05:56:52;101983.38;;;0.84;100.00
3444;BME280;1736;52.068;6.968;2023-03-03T05:59:21;101972.81;;;0.90;100.00
3444;BME280;1736;52.068;6.968;2023-03-03T06:01:48;101973.81;;;0.85;100.00
3444;BME280;1736;52.068;6.968;2023-03-03T06:04:14;101980.50;;;0.95;100.00
3444;BME280;1736;52.068;6.968;2023-03-03T06:06:41;101970.94;;;0.95;100.00
3444;BME280;1736;52.068;6.968;2023-03-03T06:09:09;101980.38;;;1.01;100.00
3444;BME280;1736;52.068;6.968;2023-03-03T06:11:35;101978.50;;;1.06;100.00
3444;BME280;1736;52.068;6.968;2023-03-03T06:14:02;101984.72;;;1.02;100.00
3444;BME280;1736;52.068;6.968;2023-03-03T06:16:29;101993.91;;;1.18;100.00
3444;BME280;1736;52.068;6.968;2023-03-03T06:18:56;101987.09;;;1.11;100.00
3444;BME280;1736;52.068;6.968;2023-03-03T06:21:22;101994.59;;;1.24;100.00
3444;BME280;1736;52.068;6.968;2023-03-03T06:23:49;101995.59;;;1.19;100.00
3444;BME280;1736;52.068;6.968;2023-03-03T06:26:17;102000.78;;;1.22;100.00
3444;BME280;1736;52.068;6.968;2023-03-03T06:28:43;102011.22;;;1.22;100.00
3444;BME280;1736;52.068;6.968;2023-03-03T06:31:10;102010.22;;;1.27;100.00
3444;BME280;1736;52.068;6.968;2023-03-03T06:33:37;101998.28;;;1.16;100.00
3444;BME280;1736;52.068;6.968;2023-03-03T06:36:05;102002.66;;;1.17;100.00
3444;BME280;1736;52.068;6.968;2023-03-03T06:38:32;102006.06;;;1.19;100.00
3444;BME280;1736;52.068;6.968;2023-03-03T06:40:58;102002.34;;;1.29;100.00
3444;BME280;1736;52.068;6.968;2023-03-03T06:43:27;102012.09;;;1.22;100.00
3444;BME280;1736;52.068;6.968;2023-03-03T06:45:54;102010.34;;;1.21;100.00
3444;BME280;1736;52.068;6.968;2023-03-03T06:48:21;102009.22;;;1.33;100.00
3444;BME280;1736;52.068;6.968;2023-03-03T06:50:47;102018.09;;;1.26;100.00
3444;BME280;1736;52.068;6.968;2023-03-03T06:53:15;102018.88;;;1.29;100.00
3444;BME280;1736;52.068;6.968;2023-03-03T06:55:42;102018.88;;;1.29;100.00
3444;BME280;1736;52.068;6.968;2023-03-03T06:58:11;102020.72;;;1.26;100.00
3444;BME280;1736;52.068;6.968;2023-03-03T07:00:41;102014.50;;;1.30;100.00
3444;BME280;1736;52.068;6.968;2023-03-03T07:03:13;102027.53;;;1.33;100.00
3444;BME280;1736;52.068;6.968;2023-03-03T07:05:40;102022.16;;;1.37;100.00
3444;BME280;1736;52.068;6.968;2023-03-03T07:08:12;102033.72;;;1.29;100.00
3444;BME280;1736;52.068;6.968;2023-03-03T07:10:40;102021.31;;;1.37;100.00
3444;BME280;1736;52.068;6.968;2023-03-03T07:13:17;102032.69;;;1.34;100.00
3444;BME280;1736;52.068;6.968;2023-03-03T07:15:46;102036.91;;;1.40;100.00
3444;BME280;1736;52.068;6.968;2023-03-03T07:18:24;102027.97;;;1.50;100.00
3444;BME280;1736;52.068;6.968;2023-03-03T07:20:54;102031.53;;;1.46;100.00
3444;BME280;1736;52.068;6.968;2023-03-03T07:23:23;102036.53;;;1.55;100.00
3444;BME280;1736;52.068;6.968;2023-03-03T07:25:51;102033.19;;;1.50;100.00
3444;BME280;1736;52.068;6.968;2023-03-03T07:28:22;102034.78;;;1.55;100.00
3444;BME280;1736;52.068;6.968;2023-03-03T07:30:50;102033.97;;;1.53;100.00
3444;BME280;1736;52.068;6.968;2023-03-03T07:33:23;102042.50;;;1.60;100.00
3444;BME280;1736;52.068;6.968;2023-03-03T07:35:52;102045.34;;;1.51;100.00
3444;BME280;1736;52.068;6.968;2023-03-03T07:38:24;102043.34;;;1.62;100.00
3444;BME280;1736;52.068;6.968;2023-03-03T07:40:54;102055.69;;;1.57;100.00
3444;BME280;1736;52.068;6.968;2023-03-03T07:43:29;102061.75;;;1.57;100.00
3444;BME280;1736;52.068;6.968;2023-03-03T07:46:01;102065.75;;;1.72;100.00
3444;BME280;1736;52.068;6.968;2023-03-03T07:48:33;102064.28;;;1.62;100.00
3444;BME280;1736;52.068;6.968;2023-03-03T07:51:05;102066.78;;;1.65;100.00
3444;BME280;1736;52.068;6.968;2023-03-03T07:53:37;102076.38;;;1.66;100.00
3444;BME280;1736;52.068;6.968;2023-03-03T07:56:14;102074.94;;;1.86;100.00
3444;BME280;1736;52.068;6.968;2023-03-03T07:58:42;102073.34;;;1.81;100.00
3444;BME280;1736;52.068;6.968;2023-03-03T08:01:38;102075.09;;;1.82;100.00
3444;BME280;1736;52.068;6.968;2023-03-03T08:04:19;102082.94;;;1.82;100.00
3444;BME280;1736;52.068;6.968;2023-03-03T08:06:49;102087.25;;;1.84;100.00
3444;BME280;1736;52.068;6.968;2023-03-03T08:09:38;102091.84;;;1.75;100.00
3444;BME280;1736;52.068;6.968;2023-03-03T08:12:24;102096.75;;;1.87;100.00
3444;BME280;1736;52.068;6.968;2023-03-03T08:14:54;102100.34;;;1.83;100.00
3444;BME280;1736;52.068;6.968;2023-03-03T08:17:24;102104.88;;;1.76;100.00
3444;BME280;1736;52.068;6.968;2023-03-03T08:19:54;102105.91;;;1.71;100.00
3444;BME280;1736;52.068;6.968;2023-03-03T08:22:30;102104.56;;;1.55;100.00
3444;BME280;1736;52.068;6.968;2023-03-03T08:24:57;102101.72;;;1.64;100.00
3444;BME280;1736;52.068;6.968;2023-03-03T08:27:23;102097.09;;;1.73;100.00
3444;BME280;1736;52.068;6.968;2023-03-03T08:29:50;102101.22;;;1.83;100.00
3444;BME280;1736;52.068;6.968;2023-03-03T08:32:16;102103.56;;;1.94;100.00
3444;BME280;1736;52.068;6.968;2023-03-03T08:34:44;102106.84;;;2.02;100.00
3444;BME280;1736;52.068;6.968;2023-03-03T08:37:11;102105.88;;;2.06;100.00
3444;BME280;1736;52.068;6.968;2023-03-03T08:39:38;102101.94;;;1.90;99.75
3444;BME280;1736;52.068;6.968;2023-03-03T08:42:05;102113.78;;;2.03;99.39
3444;BME280;1736;52.068;6.968;2023-03-03T08:44:31;102109.75;;;1.91;99.92
3444;BME280;1736;52.068;6.968;2023-03-03T08:46:58;102101.44;;;2.08;99.72
3444;BME280;1736;52.068;6.968;2023-03-03T08:49:25;102109.03;;;2.17;99.51
3444;BME280;1736;52.068;6.968;2023-03-03T08:51:53;102103.44;;;2.30;98.93
3444;BME280;1736;52.068;6.968;2023-03-03T08:54:20;102103.31;;;2.35;98.25
3444;BME280;1736;52.068;6.968;2023-03-03T08:56:47;102103.94;;;2.44;96.88
3444;BME280;1736;52.068;6.968;2023-03-03T08:59:14;102092.53;;;2.45;96.60
3444;BME280;1736;52.068;6.968;2023-03-03T09:01:40;102109.97;;;2.46;96.33
3444;BME280;1736;52.068;6.968;2023-03-03T09:04:08;102106.63;;;2.41;96.43
3444;BME280;1736;52.068;6.968;2023-03-03T09:06:35;102107.38;;;2.45;95.89
3444;BME280;1736;52.068;6.968;2023-03-03T09:09:03;102108.59;;;2.64;95.74
3444;BME280;1736;52.068;6.968;2023-03-03T09:11:30;102109.50;;;2.63;95.08
3444;BME280;1736;52.068;6.968;2023-03-03T09:14:03;102107.56;;;2.39;94.57
3444;BME280;1736;52.068;6.968;2023-03-03T09:16:36;102117.44;;;2.60;95.64
3444;BME280;1736;52.068;6.968;2023-03-03T09:19:15;102118.13;;;2.36;95.06
3444;BME280;1736;52.068;6.968;2023-03-03T09:21:44;102118.81;;;2.42;96.12
3444;BME280;1736;52.068;6.968;2023-03-03T09:24:19;102116.88;;;2.49;95.42
3444;BME280;1736;52.068;6.968;2023-03-03T09:26:49;102117.19;;;2.69;94.34
3444;BME280;1736;52.068;6.968;2023-03-03T09:29:23;102124.59;;;2.84;93.88
3444;BME280;1736;52.068;6.968;2023-03-03T09:31:52;102116.47;;;2.93;93.59
3444;BME280;1736;52.068;6.968;2023-03-03T09:34:22;102117.63;;;3.12;92.57
3444;BME280;1736;52.068;6.968;2023-03-03T09:36:49;102119.50;;;3.07;91.92
3444;BME280;1736;52.068;6.968;2023-03-03T09:39:20;102121.34;;;3.32;91.49
3444;BME280;1736;52.068;6.968;2023-03-03T09:48:14;102122.31;;;3.30;89.28
3444;BME280;1736;52.068;6.968;2023-03-03T09:50:54;102132.25;;;3.48;88.66
3444;BME280;1736;52.068;6.968;2023-03-03T09:53:36;102129.28;;;3.58;88.72
3444;BME280;1736;52.068;6.968;2023-03-03T09:56:14;102127.53;;;3.57;88.86
3444;BME280;1736;52.068;6.968;2023-03-03T09:58:52;102128.56;;;3.79;87.40
3444;BME280;1736;52.068;6.968;2023-03-03T10:01:41;102137.69;;;3.94;87.21
3444;BME280;1736;52.068;6.968;2023-03-03T10:04:37;102130.50;;;3.99;86.26
3444;BME280;1736;52.068;6.968;2023-03-03T10:07:19;102141.25;;;3.93;85.50
3444;BME280;1736;52.068;6.968;2023-03-03T10:10:19;102138.31;;;4.02;86.09
3444;BME280;1736;52.068;6.968;2023-03-03T10:13:01;102128.63;;;4.02;85.88
3444;BME280;1736;52.068;6.968;2023-03-03T10:15:38;102144.28;;;3.81;86.31
3444;BME280;1736;52.068;6.968;2023-03-03T10:18:14;102143.91;;;3.91;86.61
3444;BME280;1736;52.068;6.968;2023-03-03T10:20:46;102150.31;;;3.83;87.20
3444;BME280;1736;52.068;6.968;2023-03-03T10:23:23;102152.81;;;3.60;87.97
3444;BME280;1736;52.068;6.968;2023-03-03T10:25:56;102145.16;;;3.80;87.56
3444;BME280;1736;52.068;6.968;2023-03-03T10:28:53;102151.63;;;3.96;86.61
3444;BME280;1736;52.068;6.968;2023-03-03T10:31:37;102157.09;;;3.90;87.86
3444;BME280;1736;52.068;6.968;2023-03-03T10:34:20;102156.47;;;4.08;87.24
3444;BME280;1736;52.068;6.968;2023-03-03T10:36:54;102157.50;;;4.28;85.58
3444;BME280;1736;52.068;6.968;2023-03-03T10:39:38;102151.97;;;4.36;85.08
3444;BME280;1736;52.068;6.968;2023-03-03T10:42:25;102158.06;;;4.38;84.77
3444;BME280;1736;52.068;6.968;2023-03-03T10:45:20;102151.97;;;4.36;84.17
3444;BME280;1736;52.068;6.968;2023-03-03T10:48:01;102154.34;;;4.19;84.21
3444;BME280;1736;52.068;6.968;2023-03-03T10:50:35;102153.66;;;3.88;85.30
3444;BME280;1736;52.068;6.968;2023-03-03T10:53:20;102152.09;;;4.33;85.28
3444;BME280;1736;52.068;6.968;2023-03-03T10:55:56;102158.09;;;4.61;83.52
3444;BME280;1736;52.068;6.968;2023-03-03T10:58:45;102152.66;;;4.65;82.77
3444;BME280;1736;52.068;6.968;2023-03-03T11:01:23;102153.88;;;4.80;82.22
3444;BME280;1736;52.068;6.968;2023-03-03T11:04:28;102156.38;;;5.06;81.46
3444;BME280;1736;52.068;6.968;2023-03-03T11:07:05;102157.78;;;5.16;79.39
3444;BME280;1736;52.068;6.968;2023-03-03T11:09:43;102149.31;;;5.08;79.46
3444;BME280;1736;52.068;6.968;2023-03-03T11:12:27;102149.97;;;5.13;79.94
3444;BME280;1736;52.068;6.968;2023-03-03T11:15:08;102146.28;;;4.48;80.42
3444;BME280;1736;52.068;6.968;2023-03-03T11:17:53;102140.94;;;4.51;81.50
3444;BME280;1736;52.068;6.968;2023-03-03T11:20:31;102144.50;;;4.73;81.73
3444;BME280;1736;52.068;6.968;2023-03-03T11:23:10;102136.50;;;4.76;80.91
3444;BME280;1736;52.068;6.968;2023-03-03T11:25:49;102135.13;;;4.66;81.67
3444;BME280;1736;52.068;6.968;2023-03-03T11:28:43;102134.44;;;5.07;80.91
3444;BME280;1736;52.068;6.968;2023-03-03T11:31:19;102135.94;;;5.35;79.95
3444;BME280;1736;52.068;6.968;2023-03-03T11:33:57;102128.41;;;5.26;79.03
3444;BME280;1736;52.068;6.968;2023-03-03T11:36:27;102127.22;;;5.12;80.05
3444;BME280;1736;52.068;6.968;2023-03-03T11:38:58;102129.25;;;5.05;80.41
3444;BME280;1736;52.068;6.968;2023-03-03T11:41:35;102128.00;;;5.14;80.19
3444;BME280;1736;52.068;6.968;2023-03-03T11:44:09;102127.19;;;5.56;79.69
3444;BME280;1736;52.068;6.968;2023-03-03T11:46:42;102124.19;;;5.87;79.19
3444;BME280;1736;52.068;6.968;2023-03-03T11:49:16;102118.66;;;5.93;77.34
3444;BME280;1736;52.068;6.968;2023-03-03T11:51:52;102113.06;;;6.01;76.90
3444;BME280;1736;52.068;6.968;2023-03-03T11:54:23;102115.91;;;5.96;77.05
3444;BME280;1736;52.068;6.968;2023-03-03T11:56:57;102112.19;;;5.58;77.61
3444;BME280;1736;52.068;6.968;2023-03-03T11:59:43;102118.91;;;5.22;78.19
3444;BME280;1736;52.068;6.968;2023-03-03T12:02:24;102124.53;;;4.90;79.14
3444;BME280;1736;52.068;6.968;2023-03-03T12:04:57;102112.31;;;5.12;78.91
3444;BME280;1736;52.068;6.968;2023-03-03T12:07:30;102114.91;;;4.91;79.27
3444;BME280;1736;52.068;6.968;2023-03-03T12:10:09;102115.53;;;4.97;80.50
3444;BME280;1736;52.068;6.968;2023-03-03T12:12:39;102109.53;;;5.15;80.52
3444;BME280;1736;52.068;6.968;2023-03-03T12:15:18;102109.38;;;5.20;79.82
3444;BME280;1736;52.068;6.968;2023-03-03T12:18:01;102107.19;;;5.31;80.18
3444;BME280;1736;52.068;6.968;2023-03-03T12:20:40;102098.50;;;5.06;79.99
3444;BME280;1736;52.068;6.968;2023-03-03T12:23:34;102099.44;;;5.05;80.61
3444;BME280;1736;52.068;6.968;2023-03-03T12:26:06;102094.69;;;4.91;81.79
3444;BME280;1736;52.068;6.968;2023-03-03T12:28:37;102085.75;;;4.74;82.70
3444;BME280;1736;52.068;6.968;2023-03-03T12:31:20;102087.34;;;4.78;82.80
3444;BME280;1736;52.068;6.968;2023-03-03T12:33:52;102080.94;;;4.62;82.79
3444;BME280;1736;52.068;6.968;2023-03-03T12:39:28;102088.81;;;4.85;81.97
3444;BME280;1736;52.068;6.968;2023-03-03T12:42:00;102082.47;;;4.90;81.32
3444;BME280;1736;52.068;6.968;2023-03-03T12:44:35;102089.28;;;4.73;81.57
3444;BME280;1736;52.068;6.968;2023-03-03T12:47:08;102085.25;;;4.86;81.13
3444;BME280;1736;52.068;6.968;2023-03-03T12:49:43;102084.25;;;4.67;81.85
3444;BME280;1736;52.068;6.968;2023-03-03T12:52:22;102079.09;;;4.64;82.34
3444;BME280;1736;52.068;6.968;2023-03-03T12:55:04;102086.22;;;4.62;82.33
3444;BME280;1736;52.068;6.968;2023-03-03T12:57:42;102079.25;;;4.59;82.07
3444;BME280;1736;52.068;6.968;2023-03-03T13:00:21;102075.78;;;4.59;82.15
3444;BME280;1736;52.068;6.968;2023-03-03T13:02:57;102066.16;;;4.81;82.39
3444;BME280;1736;52.068;6.968;2023-03-03T13:05:29;102069.97;;;4.74;82.33
3444;BME280;1736;52.068;6.968;2023-03-03T13:08:20;102065.81;;;4.90;82.51
3444;BME280;1736;52.068;6.968;2023-03-03T13:11:00;102057.72;;;4.73;82.79
3444;BME280;1736;52.068;6.968;2023-03-03T13:13:34;102060.56;;;4.90;83.15
3444;BME280;1736;52.068;6.968;2023-03-03T13:16:10;102057.13;;;4.88;83.21
3444;BME280;1736;52.068;6.968;2023-03-03T13:18:48;102057.13;;;4.88;83.34
3444;BME280;1736;52.068;6.968;2023-03-03T13:21:21;102054.41;;;4.91;82.60
3444;BME280;1736;52.068;6.968;2023-03-03T13:23:54;102050.31;;;5.05;82.72
3444;BME280;1736;52.068;6.968;2023-03-03T13:26:28;102053.09;;;5.01;81.63
3444;BME280;1736;52.068;6.968;2023-03-03T13:29:04;102046.75;;;5.06;82.68
3444;BME280;1736;52.068;6.968;2023-03-03T13:31:37;102051.03;;;5.09;82.72
3444;BME280;1736;52.068;6.968;2023-03-03T13:34:07;102057.03;;;5.34;82.38
3444;BME280;1736;52.068;6.968;2023-03-03T13:36:41;102047.03;;;5.42;80.39
3444;BME280;1736;52.068;6.968;2023-03-03T13:39:21;102047.31;;;5.36;80.92
3444;BME280;1736;52.068;6.968;2023-03-03T13:41:52;102039.94;;;5.44;82.27
3444;BME280;1736;52.068;6.968;2023-03-03T13:44:24;102041.53;;;5.48;82.02
3444;BME280;1736;52.068;6.968;2023-03-03T13:47:01;102036.81;;;5.56;81.25